createdAt,value
2018-11-22T12:17:45.448Z,8.18
2018-11-22T12:20:14.838Z,10.53
2018-11-22T12:22:45.770Z,8.23
2018-11-22T12:25:15.840Z,10.60
2018-11-22T12:27:45.654Z,13.15
2018-11-22T12:30:17.664Z,9.25
2018-11-22T12:32:46.473Z,9.65
2018-11-22T12:35:20.632Z,7.25
2018-11-22T12:37:55.104Z,8.68
2018-11-22T12:40:23.878Z,5.90
2018-11-22T12:42:52.575Z,6.55
2018-11-22T12:45:21.442Z,9.45
2018-11-22T12:47:50.217Z,8.63
2018-11-22T12:50:18.662Z,6.95
2018-11-22T12:52:47.572Z,7.80
2018-11-22T12:55:16.343Z,5.03
2018-11-22T12:57:45.150Z,4.83
2018-11-22T13:00:15.261Z,5.33
2018-11-22T13:02:44.268Z,9.97
2018-11-22T13:05:14.292Z,6.67
2018-11-22T13:07:43.174Z,9.17
2018-11-22T13:10:13.328Z,8.93
2018-11-22T13:12:43.150Z,5.67
2018-11-22T13:15:13.586Z,6.23
2018-11-22T13:17:42.306Z,7.80
2018-11-22T13:20:13.482Z,5.47
2018-11-22T13:22:42.218Z,5.83
2018-11-22T13:25:13.680Z,10.83
2018-11-22T13:27:42.538Z,8.27
2018-11-22T13:30:17.206Z,8.60
2018-11-22T13:32:47.195Z,6.70
2018-11-22T13:35:16.650Z,5.87
2018-11-22T13:37:46.440Z,6.50
2018-11-22T13:40:15.210Z,7.37
2018-11-22T13:42:44.525Z,7.13
2018-11-22T13:45:15.062Z,6.50
2018-11-22T13:47:44.794Z,9.03
2018-11-22T13:50:18.713Z,6.27
2018-11-22T13:52:48.950Z,4.97
2018-11-22T13:55:17.695Z,4.20
2018-11-22T13:57:46.507Z,6.50
2018-11-22T14:00:18.356Z,5.77
2018-11-22T14:02:48.492Z,4.80
2018-11-22T14:05:17.420Z,7.40
2018-11-22T14:07:46.081Z,7.47
2018-11-22T14:10:16.231Z,6.60
2018-11-22T14:12:45.143Z,4.70
2018-11-22T14:15:16.231Z,7.53
2018-11-22T14:17:45.454Z,8.47
2018-11-22T14:20:16.432Z,7.70
2018-11-22T14:22:45.226Z,12.07
2018-11-22T14:25:14.790Z,8.57
2018-11-22T14:27:44.361Z,8.33
2018-11-22T14:30:14.660Z,9.30
2018-11-22T14:32:44.019Z,10.93
2018-11-22T14:35:13.978Z,6.97
2018-11-22T14:37:43.063Z,8.13
2018-11-22T14:40:20.091Z,7.57
2018-11-22T14:42:49.481Z,8.73
2018-11-22T14:45:18.199Z,10.40
2018-11-22T14:47:48.109Z,8.60
2018-11-22T14:50:35.485Z,10.73
2018-11-22T14:53:12.823Z,12.87
2018-11-22T14:55:41.749Z,12.43
2018-11-22T14:58:10.757Z,11.60
2018-11-22T15:00:39.533Z,13.37
2018-11-22T15:03:08.343Z,15.27
2018-11-22T15:05:37.289Z,11.50
2018-11-22T15:08:06.424Z,10.13
2018-11-22T15:10:35.293Z,11.40
2018-11-22T15:13:04.047Z,11.70
2018-11-22T15:15:32.792Z,10.40
2018-11-22T15:18:01.526Z,15.07
2018-11-22T15:20:30.206Z,15.73
2018-11-22T15:22:59.074Z,12.40
2018-11-22T15:25:28.754Z,14.57
2018-11-22T15:27:57.635Z,21.77
2018-11-22T15:30:27.601Z,20.67
2018-11-22T15:32:57.043Z,14.53
2018-11-22T15:35:27.241Z,13.53
2018-11-22T15:37:56.238Z,17.63
2018-11-22T15:40:25.747Z,17.63
2018-11-22T15:42:55.959Z,17.07
2018-11-22T15:45:25.835Z,16.47
2018-11-22T15:47:54.629Z,16.70
2018-11-22T15:50:24.450Z,18.00
2018-11-22T15:52:53.257Z,17.40
2018-11-22T15:55:22.581Z,21.90
2018-11-22T15:57:53.050Z,17.63
2018-11-22T16:00:26.544Z,18.77
2018-11-22T16:02:55.804Z,18.30
2018-11-22T16:05:25.340Z,17.90
2018-11-22T16:07:54.234Z,15.90
2018-11-22T16:10:26.874Z,21.03
2018-11-22T16:12:54.568Z,15.80
2018-11-22T16:15:30.787Z,17.60
2018-11-22T16:17:59.473Z,19.87
2018-11-22T16:20:28.275Z,16.27
2018-11-22T16:22:57.078Z,18.70
2018-11-22T16:25:25.665Z,15.57
2018-11-22T16:27:54.533Z,15.03
2018-11-22T16:30:24.233Z,21.73
2018-11-22T16:32:53.333Z,16.37
2018-11-22T16:35:22.802Z,54.67
2018-11-22T16:37:51.486Z,56.23
2018-11-22T16:40:21.467Z,25.43
2018-11-22T16:42:51.167Z,17.43
2018-11-22T16:45:27.595Z,20.80
2018-11-22T16:47:57.135Z,17.53
2018-11-22T16:50:27.063Z,18.90
2018-11-22T16:52:55.990Z,19.07
2018-11-22T16:55:25.510Z,28.77
2018-11-22T16:57:55.129Z,21.97
2018-11-22T17:00:26.672Z,26.73
2018-11-22T17:02:56.821Z,25.03
2018-11-22T17:05:25.498Z,27.37
2018-11-22T17:07:54.362Z,32.17
2018-11-22T17:10:24.241Z,58.03
2018-11-22T17:12:54.311Z,55.93
2018-11-22T17:15:24.273Z,42.50
2018-11-22T17:17:53.302Z,38.43
2018-11-22T17:20:22.689Z,36.77
2018-11-22T17:22:52.114Z,36.43
2018-11-22T17:25:22.077Z,33.17
2018-11-22T17:27:52.275Z,34.03
2018-11-22T17:30:23.238Z,33.77
2018-11-22T17:32:51.871Z,30.60
2018-11-22T17:35:22.726Z,36.63
2018-11-22T17:37:51.969Z,40.47
2018-11-22T17:40:24.142Z,37.50
2018-11-22T17:42:53.271Z,38.47
2018-11-22T17:45:25.576Z,48.77
2018-11-22T17:47:54.385Z,71.80
2018-11-22T17:50:24.766Z,64.17
2018-11-22T17:52:53.506Z,63.27
2018-11-22T17:55:23.572Z,58.57
2018-11-22T17:57:52.385Z,64.33
2018-11-22T18:00:22.521Z,62.53
2018-11-22T18:02:52.194Z,58.63
2018-11-22T18:05:23.542Z,58.87
2018-11-22T18:07:49.975Z,54.63
2018-11-22T18:10:21.007Z,53.93
2018-11-22T18:12:50.418Z,61.67
2018-11-22T18:15:19.948Z,56.93
2018-11-22T18:17:48.892Z,60.43
2018-11-22T18:20:20.691Z,63.50
2018-11-22T18:22:50.319Z,58.37
2018-11-22T18:25:20.134Z,46.73
2018-11-22T18:27:48.886Z,46.40
2018-11-22T18:30:22.113Z,46.27
2018-11-22T18:32:52.203Z,40.60
2018-11-22T18:35:21.064Z,40.00
2018-11-22T18:37:50.317Z,39.63
2018-11-22T18:40:20.086Z,36.17
2018-11-22T18:42:49.844Z,38.60
2018-11-22T18:45:23.811Z,42.47
2018-11-22T18:47:52.641Z,42.50
2018-11-22T18:50:22.834Z,35.13
2018-11-22T18:52:59.684Z,32.53
2018-11-22T18:55:29.289Z,41.90
2018-11-22T18:57:58.082Z,33.80
2018-11-22T19:00:27.859Z,33.77
2018-11-22T19:02:58.014Z,35.87
2018-11-22T19:05:26.924Z,34.10
2018-11-22T19:07:56.419Z,34.53
2018-11-22T19:10:29.490Z,35.13
2018-11-22T19:13:00.734Z,37.60
2018-11-22T19:15:30.527Z,35.33
2018-11-22T19:17:59.522Z,34.57
2018-11-22T19:20:31.616Z,33.37
2018-11-22T19:23:01.103Z,32.50
2018-11-22T19:25:29.769Z,32.97
2018-11-22T19:27:59.479Z,30.03
2018-11-22T19:30:37.066Z,30.37
2018-11-22T19:33:02.201Z,28.60
2018-11-22T19:35:32.171Z,32.93
2018-11-22T19:38:01.194Z,31.77
2018-11-22T19:40:31.250Z,32.03
2018-11-22T19:43:01.587Z,30.33
2018-11-22T19:45:31.714Z,30.50
2018-11-22T19:48:00.434Z,47.43
2018-11-22T19:50:29.711Z,33.43
2018-11-22T19:52:59.469Z,31.90
2018-11-22T19:55:29.598Z,30.67
2018-11-22T19:58:00.928Z,32.80
2018-11-22T20:00:29.821Z,29.17
2018-11-22T20:02:59.839Z,36.23
2018-11-22T20:05:29.503Z,33.38
2018-11-22T20:07:59.765Z,34.43
2018-11-22T20:10:30.709Z,34.27
2018-11-22T20:12:59.633Z,32.93
2018-11-22T20:15:28.705Z,27.67
2018-11-22T20:17:58.007Z,28.43
2018-11-22T20:20:26.961Z,28.60
2018-11-22T20:22:56.284Z,27.93
2018-11-22T20:25:25.072Z,29.33
2018-11-22T20:27:54.971Z,31.70
2018-11-22T20:30:25.122Z,33.27
2018-11-22T20:32:53.844Z,29.87
2018-11-22T20:35:23.195Z,32.63
2018-11-22T20:37:52.588Z,31.60
2018-11-22T20:40:22.476Z,36.63
2018-11-22T20:42:51.376Z,34.43
2018-11-22T20:45:21.699Z,32.67
2018-11-22T20:47:52.071Z,31.47
2018-11-22T20:50:22.195Z,35.40
2018-11-22T20:52:51.020Z,33.57
2018-11-22T20:55:23.212Z,35.93
2018-11-22T20:57:54.362Z,32.03
2018-11-22T21:00:24.409Z,35.07
2018-11-22T21:02:53.242Z,32.67
2018-11-22T21:05:22.568Z,31.13
2018-11-22T21:07:51.271Z,29.93
2018-11-22T21:10:27.615Z,35.37
2018-11-22T21:12:56.553Z,33.13
2018-11-22T21:15:26.931Z,26.37
2018-11-22T21:17:57.049Z,26.27
2018-11-22T21:20:27.294Z,32.70
2018-11-22T21:22:56.160Z,25.20
2018-11-22T21:25:24.910Z,25.47
2018-11-22T21:27:53.620Z,24.27
2018-11-22T21:30:24.934Z,21.63
2018-11-22T21:32:54.162Z,21.43
2018-11-22T21:35:23.153Z,21.60
2018-11-22T21:37:53.110Z,22.43
2018-11-22T21:40:22.397Z,22.27
2018-11-22T21:42:50.998Z,20.47
2018-11-22T21:45:21.017Z,24.50
2018-11-22T21:47:49.753Z,22.57
2018-11-22T21:50:19.774Z,21.43
2018-11-22T21:52:48.554Z,19.27
2018-11-22T21:55:28.327Z,19.30
2018-11-22T21:57:58.464Z,17.77
2018-11-22T22:00:35.829Z,18.90
2018-11-22T22:03:06.079Z,17.07
2018-11-22T22:05:36.710Z,19.63
2018-11-22T22:08:05.792Z,16.37
2018-11-22T22:10:34.646Z,15.57
2018-11-22T22:13:03.333Z,16.50
2018-11-22T22:15:33.458Z,17.70
2018-11-22T22:18:02.419Z,20.20
2018-11-22T22:20:32.484Z,18.43
2018-11-22T22:23:01.346Z,18.17
2018-11-22T22:25:30.234Z,15.87
2018-11-22T22:27:59.419Z,18.40
2018-11-22T22:30:29.543Z,15.37
2018-11-22T22:32:59.748Z,13.50
2018-11-22T22:35:28.472Z,15.73
2018-11-22T22:37:57.437Z,14.23
2018-11-22T22:40:27.473Z,13.83
2018-11-22T22:42:56.904Z,16.53
2018-11-22T22:45:26.617Z,16.03
2018-11-22T22:47:55.299Z,20.10
2018-11-22T22:50:26.333Z,15.57
2018-11-22T22:52:56.266Z,15.57
2018-11-22T22:55:25.189Z,15.47
2018-11-22T22:57:53.774Z,19.20
2018-11-22T23:00:28.933Z,17.93
2018-11-22T23:02:59.274Z,17.27
2018-11-22T23:05:28.706Z,16.87
2018-11-22T23:07:57.585Z,16.03
2018-11-22T23:10:26.449Z,17.83
2018-11-22T23:12:55.969Z,15.73
2018-11-22T23:15:25.465Z,15.53
2018-11-22T23:17:54.178Z,16.03
2018-11-22T23:20:24.183Z,16.77
2018-11-22T23:22:53.238Z,15.13
2018-11-22T23:25:22.970Z,14.53
2018-11-22T23:27:51.610Z,17.30
2018-11-22T23:30:38.273Z,16.77
2018-11-22T23:33:08.082Z,15.63
2018-11-22T23:35:36.842Z,17.10
2018-11-22T23:38:05.858Z,14.47
2018-11-22T23:40:35.164Z,16.70
2018-11-22T23:43:03.996Z,15.10
2018-11-22T23:45:33.161Z,14.93
2018-11-22T23:48:02.108Z,12.10
2018-11-22T23:50:31.937Z,13.50
2018-11-22T23:53:01.597Z,13.87
2018-11-22T23:55:30.521Z,15.77
2018-11-22T23:57:59.214Z,14.03
